Time;durP1;ratioP1;P1;durP2;ratioP2;P2;SDS_P1;SDS_P2;PMS_P1;PMS_P2;Temp;Humidity;BMP_temperature;BMP_pressure;BME280_temperature;BME280_humidity;BME280_pressure;Samples;Min_cycle;Max_cycle;Signal;HPM_P1;HPM_P2
2022/06/29 00:01:56;;;;;;;6.50;2.08;;;19.90;99.90;;;;;;5093279;28;20040;-74
2022/06/29 00:04:22;;;;;;;4.53;1.80;;;19.90;99.90;;;;;;5090453;28;20024;-74
2022/06/29 00:06:48;;;;;;;5.28;2.20;;;19.80;99.90;;;;;;5093335;28;20024;-74
2022/06/29 00:09:13;;;;;;;6.07;2.05;;;19.80;99.90;;;;;;5091359;28;20040;-73
2022/06/29 00:11:39;;;;;;;5.80;2.00;;;19.70;99.90;;;;;;5093051;28;20027;-74
2022/06/29 00:14:05;;;;;;;4.60;2.35;;;19.70;99.90;;;;;;5089679;28;20226;-74
2022/06/29 00:16:30;;;;;;;7.10;2.40;;;19.70;99.90;;;;;;5090434;28;20124;-74
2022/06/29 00:18:56;;;;;;;4.38;2.03;;;19.80;99.90;;;;;;5094117;28;20595;-73
2022/06/29 00:21:22;;;;;;;6.97;2.78;;;19.80;99.90;;;;;;5093498;28;20031;-74
2022/06/29 00:23:47;;;;;;;9.95;2.85;;;19.80;99.90;;;;;;5093938;28;20038;-74
2022/06/29 00:26:13;;;;;;;7.80;2.58;;;19.70;99.90;;;;;;5092005;28;20028;-74
2022/06/29 00:28:38;;;;;;;7.40;2.83;;;19.80;99.90;;;;;;5092968;28;20063;-74
2022/06/29 00:31:04;;;;;;;8.50;2.50;;;19.90;99.90;;;;;;5085801;28;20052;-74
2022/06/29 00:33:30;;;;;;;8.95;2.72;;;19.80;99.90;;;;;;5089964;28;20500;-74
2022/06/29 00:35:55;;;;;;;8.02;2.55;;;19.70;99.90;;;;;;5093314;28;20056;-73
2022/06/29 00:38:21;;;;;;;7.50;2.22;;;19.70;99.90;;;;;;5091977;28;20107;-73
2022/06/29 00:40:47;;;;;;;7.80;2.20;;;19.80;99.90;;;;;;5092408;28;20032;-73
2022/06/29 00:43:12;;;;;;;9.05;2.45;;;19.80;99.90;;;;;;5091622;28;20093;-74
2022/06/29 00:45:38;;;;;;;8.23;2.38;;;19.70;99.90;;;;;;5091082;28;20028;-74
2022/06/29 00:48:04;;;;;;;6.70;1.90;;;19.50;99.90;;;;;;5085748;28;20491;-73
2022/06/29 00:50:32;;;;;;;5.70;2.05;;;19.60;99.90;;;;;;5090390;28;20028;-74
2022/06/29 00:53:04;;;;;;;6.38;2.47;;;19.50;99.90;;;;;;5089922;28;20397;-73
2022/06/29 00:55:32;;;;;;;7.75;2.45;;;19.50;99.90;;;;;;5091979;28;20056;-74
2022/06/29 00:58:03;;;;;;;8.05;2.10;;;19.50;99.90;;;;;;5091732;28;20067;-73
2022/06/29 01:00:29;;;;;;;8.35;2.40;;;19.60;99.90;;;;;;5093420;28;20028;-73
2022/06/29 01:02:57;;;;;;;5.57;2.25;;;19.50;99.90;;;;;;5090192;28;20054;-74
2022/06/29 01:05:22;;;;;;;4.65;2.25;;;19.40;99.90;;;;;;5088887;28;20032;-74
2022/06/29 01:07:49;;;;;;;6.35;2.67;;;19.60;99.90;;;;;;5091422;28;20039;-73
2022/06/29 01:10:15;;;;;;;9.32;2.42;;;19.70;99.90;;;;;;5091563;28;20049;-74
2022/06/29 01:12:40;;;;;;;5.25;2.30;;;19.60;99.90;;;;;;5092103;28;20107;-74
2022/06/29 01:15:07;;;;;;;8.25;2.58;;;19.70;99.90;;;;;;5092258;28;20047;-74
2022/06/29 01:17:32;;;;;;;5.85;2.28;;;19.60;99.90;;;;;;5092901;28;20495;-74
2022/06/29 01:19:58;;;;;;;5.72;2.33;;;19.60;99.90;;;;;;5093077;28;20063;-74
2022/06/29 01:22:26;;;;;;;5.43;2.92;;;19.60;99.90;;;;;;5090557;28;20093;-74
2022/06/29 01:24:51;;;;;;;7.53;2.53;;;19.50;99.90;;;;;;5092429;28;20417;-74
2022/06/29 01:27:19;;;;;;;10.35;3.47;;;19.50;99.90;;;;;;5091656;28;20111;-74
2022/06/29 01:29:45;;;;;;;6.50;2.63;;;19.60;99.90;;;;;;5090813;28;20047;-74
2022/06/29 01:32:11;;;;;;;6.45;2.00;;;19.50;99.90;;;;;;5088650;28;20452;-74
2022/06/29 01:34:37;;;;;;;5.55;2.30;;;19.30;99.90;;;;;;5092223;28;20027;-74
2022/06/29 01:37:04;;;;;;;7.40;2.53;;;19.50;99.90;;;;;;5091806;28;20115;-74
2022/06/29 01:39:30;;;;;;;12.15;2.92;;;19.60;99.90;;;;;;5088813;28;20034;-74
2022/06/29 01:41:57;;;;;;;6.65;2.42;;;19.60;99.90;;;;;;5087398;28;20042;-74
2022/06/29 01:44:22;;;;;;;5.82;2.22;;;19.50;99.90;;;;;;5088893;28;20020;-74
2022/06/29 01:46:48;;;;;;;4.90;2.05;;;19.40;99.90;;;;;;5091490;28;20036;-74
2022/06/29 01:49:14;;;;;;;7.57;2.22;;;19.10;99.90;;;;;;5091291;28;20020;-73
2022/06/29 01:51:40;;;;;;;11.00;3.45;;;19.10;99.90;;;;;;5089571;28;20024;-74
2022/06/29 01:54:06;;;;;;;11.85;2.90;;;19.20;99.90;;;;;;5090572;28;20085;-73
2022/06/29 01:56:32;;;;;;;9.98;2.70;;;19.10;99.90;;;;;;5083620;28;20023;-74
2022/06/29 01:58:57;;;;;;;6.45;2.40;;;19.30;99.90;;;;;;5091354;28;20432;-74
2022/06/29 02:01:23;;;;;;;5.78;2.40;;;19.40;99.90;;;;;;5088768;28;20478;-73
2022/06/29 02:03:50;;;;;;;6.30;2.25;;;19.30;99.90;;;;;;5089459;28;20036;-73
2022/06/29 02:06:15;;;;;;;5.63;2.40;;;19.20;99.90;;;;;;5091387;28;20024;-74
2022/06/29 02:08:41;;;;;;;5.28;2.33;;;19.20;99.90;;;;;;5092525;28;20539;-74
2022/06/29 02:11:07;;;;;;;6.70;3.20;;;19.30;99.90;;;;;;5088846;28;20023;-74
2022/06/29 02:13:32;;;;;;;5.95;2.40;;;19.40;99.90;;;;;;5084499;28;20036;-73
2022/06/29 02:15:58;;;;;;;11.35;2.90;;;19.20;99.90;;;;;;5091256;28;20474;-73
2022/06/29 02:18:24;;;;;;;11.73;2.42;;;19.20;99.90;;;;;;5091936;28;20389;-73
2022/06/29 02:20:49;;;;;;;6.53;2.35;;;19.20;99.90;;;;;;5089303;28;20047;-73
2022/06/29 02:23:15;;;;;;;4.95;2.33;;;19.20;99.90;;;;;;5085482;28;20040;-73
2022/06/29 02:25:41;;;;;;;7.40;2.35;;;19.30;99.90;;;;;;5090155;28;20028;-73
2022/06/29 02:28:06;;;;;;;7.95;2.35;;;19.30;99.90;;;;;;5090323;28;20040;-73
2022/06/29 02:36:02;;;;;;;;;;;19.60;99.90;;;;;;5091485;28;20039;-73
2022/06/29 02:38:28;;;;;;;6.95;1.92;;;19.60;99.90;;;;;;5089858;28;19907;-73
2022/06/29 02:40:53;;;;;;;3.95;1.90;;;19.60;99.90;;;;;;5088392;28;20132;-74
2022/06/29 02:43:19;;;;;;;6.10;1.92;;;19.40;99.90;;;;;;5091948;28;20040;-73
2022/06/29 02:45:45;;;;;;;9.55;2.28;;;19.50;99.90;;;;;;5091725;28;20062;-73
2022/06/29 02:48:10;;;;;;;4.03;2.17;;;19.60;99.90;;;;;;5090355;28;20028;-74
2022/06/29 02:50:36;;;;;;;5.30;1.85;;;19.60;99.90;;;;;;5088131;28;20123;-73
2022/06/29 02:53:01;;;;;;;8.80;2.38;;;19.50;99.90;;;;;;5087237;28;20450;-73
2022/06/29 02:55:27;;;;;;;6.32;2.25;;;19.60;99.90;;;;;;5091886;28;20389;-73
2022/06/29 02:57:53;;;;;;;8.45;2.72;;;19.50;99.90;;;;;;5090601;28;20164;-73
2022/06/29 03:00:19;;;;;;;10.07;2.15;;;19.50;99.90;;;;;;5088753;28;20110;-73
2022/06/29 03:02:45;;;;;;;8.57;3.38;;;19.50;99.90;;;;;;5088310;28;20031;-73
2022/06/29 03:05:11;;;;;;;7.78;1.98;;;19.50;99.90;;;;;;5083157;28;20024;-73
2022/06/29 03:07:37;;;;;;;5.78;2.28;;;19.40;99.90;;;;;;5090583;28;20031;-74
2022/06/29 03:10:03;;;;;;;4.07;1.70;;;19.40;99.90;;;;;;5087880;28;20766;-74
2022/06/29 03:12:29;;;;;;;7.70;2.20;;;19.60;99.90;;;;;;5089942;28;20055;-74
2022/06/29 03:14:55;;;;;;;5.55;2.10;;;19.70;99.90;;;;;;5088946;28;20039;-74
2022/06/29 03:17:20;;;;;;;4.32;2.08;;;19.70;99.90;;;;;;5089707;28;20032;-74
2022/06/29 03:19:46;;;;;;;5.78;2.28;;;19.60;99.90;;;;;;5078666;28;20036;-73
2022/06/29 03:22:12;;;;;;;5.32;2.47;;;19.50;99.90;;;;;;5082376;28;20386;-73
2022/06/29 03:24:38;;;;;;;4.85;1.92;;;19.40;99.90;;;;;;5088363;28;20103;-73
2022/06/29 03:27:04;;;;;;;10.98;2.78;;;19.30;99.90;;;;;;5090068;28;20031;-73
2022/06/29 03:29:30;;;;;;;6.18;2.05;;;19.30;99.90;;;;;;5087162;28;20028;-73
2022/06/29 03:31:56;;;;;;;6.60;2.92;;;19.40;99.90;;;;;;5089740;28;20028;-73
2022/06/29 03:34:21;;;;;;;5.07;2.28;;;19.30;99.90;;;;;;5089567;28;20183;-73
2022/06/29 03:36:47;;;;;;;6.00;2.45;;;19.30;99.90;;;;;;5090391;28;20081;-73
2022/06/29 03:39:13;;;;;;;11.40;2.53;;;19.30;99.90;;;;;;5082378;28;20039;-73
2022/06/29 03:41:38;;;;;;;8.70;2.50;;;19.30;99.90;;;;;;5089302;28;20043;-73
2022/06/29 03:44:04;;;;;;;10.35;2.63;;;19.30;99.90;;;;;;5087470;28;20463;-73
2022/06/29 03:46:30;;;;;;;5.63;2.38;;;19.40;99.90;;;;;;5090053;28;20120;-73
2022/06/29 03:48:55;;;;;;;4.95;2.00;;;19.50;99.90;;;;;;5088365;28;20162;-74
2022/06/29 03:51:21;;;;;;;7.75;2.20;;;19.70;99.90;;;;;;5086978;28;20031;-74
2022/06/29 03:53:47;;;;;;;7.78;2.47;;;19.60;99.90;;;;;;5086014;28;20044;-74
2022/06/29 03:56:12;;;;;;;5.82;2.25;;;19.60;99.90;;;;;;5083176;28;20093;-74
2022/06/29 03:58:38;;;;;;;7.38;2.55;;;19.50;99.90;;;;;;5084924;28;20032;-74
2022/06/29 04:01:04;;;;;;;3.80;1.90;;;19.60;99.90;;;;;;5084707;28;20051;-74
2022/06/29 04:03:30;;;;;;;8.02;2.17;;;19.40;99.90;;;;;;5085382;28;20039;-74
2022/06/29 04:05:56;;;;;;;4.47;2.45;;;19.40;99.90;;;;;;5086864;28;20046;-74
2022/06/29 04:08:22;;;;;;;9.52;3.15;;;19.40;99.90;;;;;;5084508;28;20050;-74
2022/06/29 04:10:47;;;;;;;6.82;2.72;;;19.20;99.90;;;;;;5085464;28;20036;-74
2022/06/29 04:13:13;;;;;;;7.53;2.75;;;19.30;99.90;;;;;;5083699;28;20039;-74
2022/06/29 04:15:39;;;;;;;7.03;3.75;;;19.40;99.90;;;;;;5086999;28;20032;-73
2022/06/29 04:18:05;;;;;;;5.60;3.03;;;19.50;99.90;;;;;;5084294;28;20657;-73
2022/06/29 04:21:13;;;;;;;9.30;3.03;;;19.30;99.90;;;;;;5078342;28;20036;-74
2022/06/29 04:23:19;;;;;;;8.40;2.28;;;19.50;99.90;;;;;;5081684;28;20641;-74
2022/06/29 04:25:45;;;;;;;5.93;2.55;;;19.40;99.90;;;;;;5085880;28;20074;-74
2022/06/29 04:28:11;;;;;;;7.80;2.20;;;19.50;99.90;;;;;;5082152;28;20029;-74
2022/06/29 04:30:36;;;;;;;6.93;2.05;;;19.60;99.90;;;;;;5083099;28;20428;-73
2022/06/29 04:33:02;;;;;;;9.77;2.58;;;19.50;99.90;;;;;;5084367;28;20099;-74
2022/06/29 04:35:28;;;;;;;6.32;2.42;;;19.60;99.90;;;;;;5086983;28;20921;-73
2022/06/29 04:37:53;;;;;;;5.72;2.40;;;19.40;99.90;;;;;;5084663;28;20032;-74
2022/06/29 04:40:19;;;;;;;5.57;2.53;;;19.40;99.90;;;;;;5082601;28;20031;-73
2022/06/29 04:42:44;;;;;;;5.57;2.30;;;19.30;99.90;;;;;;5085610;28;20050;-74
2022/06/29 04:47:57;;;;;;;;;;;19.30;99.90;;;;;;5079721;28;20158;-74
2022/06/29 04:50:23;;;;;;;4.63;2.35;;;19.30;99.90;;;;;;5082631;28;19915;-74
2022/06/29 04:52:49;;;;;;;4.78;2.38;;;19.40;99.90;;;;;;5084789;28;20040;-73
2022/06/29 04:55:14;;;;;;;7.65;2.35;;;19.20;99.90;;;;;;5084996;28;20040;-73
2022/06/29 04:57:40;;;;;;;8.88;2.13;;;19.20;99.90;;;;;;5084442;28;20607;-73
2022/06/29 05:00:06;;;;;;;8.75;2.60;;;19.40;99.90;;;;;;5083634;28;20088;-73
2022/06/29 05:02:31;;;;;;;8.10;2.45;;;19.40;99.90;;;;;;5079921;28;20040;-73
2022/06/29 05:04:57;;;;;;;6.28;2.55;;;19.40;99.90;;;;;;5083267;28;20031;-73
2022/06/29 05:07:23;;;;;;;9.07;2.67;;;19.40;99.90;;;;;;5080229;28;20032;-73
2022/06/29 05:09:48;;;;;;;7.15;2.17;;;19.40;99.90;;;;;;5085576;28;20485;-73
2022/06/29 05:12:14;;;;;;;6.68;2.67;;;19.50;99.90;;;;;;5084419;28;20059;-74
2022/06/29 05:14:39;;;;;;;5.20;2.10;;;19.50;99.90;;;;;;5083944;28;20560;-73
2022/06/29 05:17:05;;;;;;;5.65;2.00;;;19.50;99.90;;;;;;5083807;28;20043;-73
2022/06/29 05:19:31;;;;;;;6.97;2.10;;;19.50;99.90;;;;;;5081535;28;20035;-73
2022/06/29 05:21:56;;;;;;;9.07;2.40;;;19.50;99.90;;;;;;5083663;28;20032;-73
2022/06/29 05:24:22;;;;;;;7.88;2.10;;;19.60;99.90;;;;;;5083062;28;20054;-73
2022/06/29 05:26:47;;;;;;;5.90;2.38;;;19.60;99.90;;;;;;5085348;28;20047;-73
2022/06/29 05:29:13;;;;;;;6.55;2.45;;;19.50;99.90;;;;;;5079324;28;20028;-73
2022/06/29 05:31:39;;;;;;;9.98;2.85;;;19.50;99.90;;;;;;5088619;28;20055;-74
2022/06/29 05:34:04;;;;;;;6.93;2.20;;;19.60;99.90;;;;;;5084942;28;20089;-75
2022/06/29 05:36:30;;;;;;;4.65;1.98;;;19.70;99.90;;;;;;5080808;28;20020;-72
2022/06/29 05:38:55;;;;;;;7.95;2.97;;;19.70;99.90;;;;;;5081213;28;20478;-73
2022/06/29 05:41:21;;;;;;;4.82;2.20;;;19.70;99.90;;;;;;5084762;28;20123;-75
2022/06/29 05:43:51;;;;;;;11.20;2.55;;;19.30;99.90;;;;;;5080921;28;20425;-74
2022/06/29 05:46:18;;;;;;;9.02;2.42;;;19.30;99.90;;;;;;5081926;28;20035;-74
2022/06/29 05:48:44;;;;;;;10.63;3.00;;;19.20;99.90;;;;;;5084134;28;20028;-75
2022/06/29 05:51:09;;;;;;;7.60;2.40;;;19.10;99.90;;;;;;5084581;28;20086;-73
2022/06/29 05:53:35;;;;;;;4.00;1.98;;;19.10;99.90;;;;;;5080022;28;20032;-74
2022/06/29 05:56:00;;;;;;;6.22;2.83;;;19.00;99.90;;;;;;5084244;28;20489;-74
2022/06/29 05:58:26;;;;;;;7.80;2.63;;;19.00;99.90;;;;;;5083496;28;20039;-74
2022/06/29 06:00:52;;;;;;;7.55;2.80;;;19.10;99.90;;;;;;5084358;28;20031;-74
2022/06/29 06:03:18;;;;;;;6.70;2.33;;;19.00;99.90;;;;;;5081919;28;20040;-74
2022/06/29 06:05:44;;;;;;;13.52;2.65;;;19.10;99.90;;;;;;5083036;28;20028;-74
2022/06/29 06:08:12;;;;;;;7.03;2.80;;;19.30;99.90;;;;;;5082550;28;20069;-74
2022/06/29 06:10:39;;;;;;;8.18;3.17;;;19.30;99.90;;;;;;5078940;28;20031;-74
2022/06/29 06:13:08;;;;;;;10.52;2.92;;;19.40;99.90;;;;;;5080616;28;20056;-74
2022/06/29 06:15:34;;;;;;;13.60;2.38;;;19.50;99.90;;;;;;5083985;28;20065;-75
2022/06/29 06:18:01;;;;;;;7.75;2.58;;;19.50;99.90;;;;;;5082037;28;20059;-74
2022/06/29 06:20:28;;;;;;;6.47;2.97;;;19.50;99.90;;;;;;5082736;28;20858;-74
2022/06/29 06:22:54;;;;;;;5.68;2.47;;;19.30;99.90;;;;;;5082001;28;20463;-75
2022/06/29 06:25:19;;;;;;;10.55;3.30;;;19.00;99.90;;;;;;5075364;28;20036;-74
2022/06/29 06:27:45;;;;;;;5.25;2.22;;;19.10;99.90;;;;;;5077787;28;20043;-75
2022/06/29 06:30:11;;;;;;;10.73;3.10;;;19.10;99.90;;;;;;5079540;28;20051;-74
2022/06/29 06:32:37;;;;;;;11.68;2.50;;;19.00;99.90;;;;;;5082463;28;20970;-74
2022/06/29 06:35:03;;;;;;;6.03;2.33;;;19.10;99.90;;;;;;5079397;28;20107;-74
2022/06/29 06:37:29;;;;;;;8.27;2.72;;;19.10;99.90;;;;;;5082322;28;20028;-74
2022/06/29 06:42:55;;;;;;;8.95;3.08;;;19.10;99.90;;;;;;5068246;28;20048;-74
2022/06/29 06:45:21;;;;;;;5.90;3.13;;;19.20;99.90;;;;;;5075574;28;20036;-74
2022/06/29 06:47:47;;;;;;;7.50;2.75;;;19.30;99.90;;;;;;5080418;28;20043;-74
2022/06/29 06:50:12;;;;;;;6.45;3.08;;;19.30;99.90;;;;;;5082722;28;20032;-75
2022/06/29 06:52:38;;;;;;;8.07;2.92;;;19.20;99.90;;;;;;5082513;28;20047;-74
2022/06/29 06:55:04;;;;;;;8.48;2.83;;;19.20;99.90;;;;;;5081466;28;20028;-74
2022/06/29 06:57:30;;;;;;;6.18;3.17;;;19.20;99.90;;;;;;5082753;28;20136;-75
2022/06/29 06:59:55;;;;;;;7.10;3.22;;;19.30;99.90;;;;;;5082161;28;20461;-75
2022/06/29 07:02:21;;;;;;;10.10;2.50;;;19.20;99.90;;;;;;5080712;28;20043;-75
2022/06/29 07:04:47;;;;;;;6.05;2.72;;;19.20;99.90;;;;;;5082504;28;20733;-74
2022/06/29 07:07:13;;;;;;;10.65;3.80;;;19.10;99.90;;;;;;5080068;28;20753;-75
2022/06/29 07:09:39;;;;;;;10.40;2.88;;;19.10;99.90;;;;;;5083174;28;20093;-75
2022/06/29 07:12:05;;;;;;;10.10;3.58;;;19.10;99.90;;;;;;5083281;28;20032;-74
2022/06/29 07:14:31;;;;;;;9.52;2.80;;;19.20;99.90;;;;;;5081679;28;20047;-74
2022/06/29 07:16:57;;;;;;;12.00;3.08;;;19.30;99.90;;;;;;5081745;28;20036;-74
2022/06/29 07:19:23;;;;;;;7.93;3.17;;;19.40;99.90;;;;;;5079653;28;20062;-74
2022/06/29 07:21:49;;;;;;;8.48;3.03;;;19.60;99.90;;;;;;5079311;28;20580;-74
2022/06/29 07:24:14;;;;;;;12.65;2.92;;;19.90;99.90;;;;;;5082324;28;20113;-74
2022/06/29 07:26:40;;;;;;;8.43;3.25;;;20.30;99.90;;;;;;5080667;28;20032;-74
2022/06/29 07:29:06;;;;;;;9.15;2.67;;;20.60;99.90;;;;;;5083282;28;20086;-74
2022/06/29 07:31:31;;;;;;;7.13;3.17;;;20.80;99.90;;;;;;5081528;28;20052;-75
2022/06/29 07:33:57;;;;;;;6.40;2.80;;;20.60;99.90;;;;;;5083643;28;20470;-74
2022/06/29 07:36:23;;;;;;;6.25;2.60;;;20.60;99.90;;;;;;5076586;28;20054;-74
2022/06/29 07:38:48;;;;;;;5.07;2.65;;;20.60;99.90;;;;;;5081602;28;20036;-74
2022/06/29 07:41:14;;;;;;;7.95;2.63;;;20.70;99.90;;;;;;5080838;28;20481;-74
2022/06/29 07:43:40;;;;;;;5.68;2.22;;;20.70;99.90;;;;;;5081628;28;20690;-74
2022/06/29 07:46:05;;;;;;;7.07;2.90;;;20.80;99.90;;;;;;5081861;28;20241;-74
2022/06/29 07:48:31;;;;;;;6.13;3.08;;;20.80;99.90;;;;;;5079490;28;20046;-74
2022/06/29 07:50:57;;;;;;;7.15;2.40;;;20.90;99.90;;;;;;5082009;28;20425;-74
2022/06/29 07:53:22;;;;;;;11.20;2.85;;;20.90;99.90;;;;;;5077883;28;20094;-74
2022/06/29 07:55:48;;;;;;;7.13;2.95;;;21.10;99.90;;;;;;5084980;28;20067;-74
2022/06/29 07:58:15;;;;;;;6.75;3.03;;;21.10;99.90;;;;;;5085297;28;20078;-74
2022/06/29 08:00:41;;;;;;;9.70;2.92;;;21.20;99.90;;;;;;5084113;28;20066;-74
2022/06/29 08:03:07;;;;;;;10.20;3.00;;;21.40;99.90;;;;;;5084218;28;20051;-74
2022/06/29 08:05:34;;;;;;;9.60;4.30;;;21.20;99.90;;;;;;5085353;28;20036;-74
2022/06/29 08:08:00;;;;;;;7.40;3.20;;;21.30;99.90;;;;;;5084299;28;20032;-74
2022/06/29 08:10:26;;;;;;;6.70;2.78;;;21.40;99.90;;;;;;5080793;28;20042;-74
2022/06/29 08:12:52;;;;;;;6.25;2.50;;;21.50;99.90;;;;;;5085225;28;20030;-74
2022/06/29 08:15:17;;;;;;;6.70;3.00;;;21.60;99.90;;;;;;5084846;28;20607;-74
2022/06/29 08:17:44;;;;;;;7.68;3.28;;;21.60;99.90;;;;;;5084956;28;20077;-73
2022/06/29 08:20:10;;;;;;;11.80;3.17;;;21.70;99.90;;;;;;5084623;28;20024;-74
2022/06/29 08:22:36;;;;;;;6.78;2.85;;;21.50;99.90;;;;;;5082599;28;20058;-74
2022/06/29 08:25:02;;;;;;;9.10;2.67;;;21.30;99.90;;;;;;5085629;28;20114;-74
2022/06/29 08:27:29;;;;;;;7.60;3.78;;;21.40;99.90;;;;;;5083333;28;20054;-74
2022/06/29 08:29:54;;;;;;;7.45;2.80;;;21.50;99.90;;;;;;5082708;28;20538;-74
2022/06/29 08:32:20;;;;;;;6.32;2.53;;;21.70;99.90;;;;;;5084524;28;20127;-74
2022/06/29 08:34:46;;;;;;;8.75;2.60;;;21.60;99.90;;;;;;5081860;28;20059;-74
2022/06/29 08:37:12;;;;;;;6.97;2.28;;;21.50;99.90;;;;;;5084019;28;20028;-74
2022/06/29 08:39:38;;;;;;;9.45;2.80;;;21.70;99.90;;;;;;5081921;28;20462;-74
2022/06/29 08:42:05;;;;;;;7.57;2.70;;;21.90;99.90;;;;;;5083190;28;20048;-74
2022/06/29 08:44:36;;;;;;;8.68;2.92;;;21.70;99.90;;;;;;5081526;28;20040;-74
2022/06/29 08:47:06;;;;;;;6.93;2.67;;;21.70;99.90;;;;;;5083447;28;20522;-74
2022/06/29 08:49:33;;;;;;;8.95;3.13;;;22.10;99.90;;;;;;5084686;28;20040;-74
2022/06/29 08:51:59;;;;;;;8.50;2.67;;;22.20;99.90;;;;;;5084308;28;20194;-74
2022/06/29 08:54:25;;;;;;;7.10;2.88;;;22.40;99.90;;;;;;5084739;28;20104;-74
2022/06/29 08:56:58;;;;;;;7.85;2.85;;;22.50;99.90;;;;;;5084182;28;20024;-74
2022/06/29 08:59:23;;;;;;;11.70;2.78;;;22.50;99.90;;;;;;5083105;28;20040;-74
2022/06/29 09:01:52;;;;;;;10.60;3.08;;;22.30;99.90;;;;;;5074420;28;20118;-74
2022/06/29 09:04:18;;;;;;;6.22;2.42;;;22.30;99.90;;;;;;5083969;28;20028;-74
2022/06/29 09:06:45;;;;;;;6.07;2.65;;;22.30;99.90;;;;;;5083027;28;20031;-74
2022/06/29 09:09:12;;;;;;;7.22;3.03;;;22.30;99.90;;;;;;5084286;28;20031;-75
2022/06/29 09:11:42;;;;;;;11.95;3.45;;;22.40;99.90;;;;;;5083856;28;20643;-75
2022/06/29 09:14:14;;;;;;;12.52;3.40;;;22.40;99.90;;;;;;5083805;28;20482;-73
2022/06/29 09:17:03;;;;;;;7.82;2.65;;;22.40;99.90;;;;;;5082775;28;20035;-73
2022/06/29 09:19:29;;;;;;;13.30;3.17;;;22.40;99.90;;;;;;5078224;28;20912;-73
2022/06/29 09:21:58;;;;;;;6.32;2.70;;;22.50;99.90;;;;;;5083679;28;20024;-73
2022/06/29 09:24:28;;;;;;;6.32;2.42;;;22.60;99.90;;;;;;5082342;28;20483;-73
2022/06/29 09:27:00;;;;;;;5.60;2.50;;;22.70;99.90;;;;;;5082590;28;20032;-73
2022/06/29 09:29:28;;;;;;;7.18;2.60;;;22.80;99.90;;;;;;5083136;28;20111;-73
2022/06/29 09:32:06;;;;;;;10.93;3.75;;;22.80;99.90;;;;;;5084518;28;20047;-73
2022/06/29 09:34:33;;;;;;;8.65;2.67;;;22.90;99.90;;;;;;5080618;28;20036;-73
2022/06/29 09:37:00;;;;;;;8.10;2.67;;;22.90;99.90;;;;;;5083048;28;20020;-73
2022/06/29 09:39:34;;;;;;;8.98;3.80;;;22.90;99.90;;;;;;5082625;28;20040;-73
2022/06/29 09:42:01;;;;;;;8.07;4.50;;;22.60;99.90;;;;;;5083430;28;20569;-73
2022/06/29 09:44:27;;;;;;;8.32;4.20;;;22.80;99.90;;;;;;5083823;28;20027;-73
2022/06/29 09:46:56;;;;;;;9.88;4.85;;;22.80;99.90;;;;;;5080529;28;20028;-73
2022/06/29 09:49:25;;;;;;;9.70;4.57;;;22.80;99.90;;;;;;5082004;28;20111;-73
2022/06/29 09:51:55;;;;;;;11.45;4.63;;;22.90;99.90;;;;;;5082028;28;20542;-72
2022/06/29 09:54:46;;;;;;;9.38;3.90;;;22.80;99.90;;;;;;5081902;28;20040;-73
2022/06/29 09:57:13;;;;;;;12.40;4.78;;;22.80;99.90;;;;;;5077617;28;20395;-72
2022/06/29 10:02:51;;;;;;;12.13;3.75;;;22.80;99.90;;;;;;5084215;28;20143;-73
2022/06/29 10:05:28;;;;;;;14.02;3.78;;;22.70;99.90;;;;;;5083493;28;20419;-73
2022/06/29 10:07:54;;;;;;;7.97;3.78;;;22.80;99.90;;;;;;5081962;28;20031;-73
2022/06/29 10:10:28;;;;;;;10.80;4.10;;;22.90;99.90;;;;;;5077082;28;20039;-72
2022/06/29 10:13:40;;;;;;;8.93;3.20;;;22.80;99.90;;;;;;5075367;28;20043;-73
2022/06/29 10:16:24;;;;;;;10.48;3.78;;;22.90;99.90;;;;;;5082029;28;20548;-73
2022/06/29 10:19:33;;;;;;;9.48;3.58;;;23.00;99.90;;;;;;5081137;28;20370;-73
2022/06/29 10:21:59;;;;;;;11.60;3.88;;;23.20;99.90;;;;;;5082860;28;20050;-73
2022/06/29 10:24:25;;;;;;;9.75;3.35;;;23.40;99.90;;;;;;5084540;28;20435;-74
2022/06/29 10:26:51;;;;;;;8.77;3.45;;;23.60;99.90;;;;;;5061551;28;20431;-72
2022/06/29 10:29:23;;;;;;;15.02;4.10;;;23.70;99.90;;;;;;5059921;28;20111;-73
2022/06/29 10:34:34;;;;;;;9.25;5.28;;;23.40;99.90;;;;;;5057795;28;20047;-73
2022/06/29 10:37:07;;;;;;;7.28;3.97;;;23.50;99.90;;;;;;5059520;28;20036;-73
2022/06/29 10:39:41;;;;;;;7.88;3.78;;;23.60;99.90;;;;;;5058320;28;20166;-72
2022/06/29 10:45:13;;;;;;;8.95;3.45;;;23.90;99.90;;;;;;5059769;28;20050;-72
2022/06/29 10:47:54;;;;;;;9.32;3.58;;;24.40;99.90;;;;;;5058535;28;20173;-72
2022/06/29 10:50:21;;;;;;;7.70;3.78;;;24.70;99.90;;;;;;5083359;28;20032;-73
2022/06/29 10:52:55;;;;;;;11.05;3.50;;;24.60;99.90;;;;;;5068170;28;20028;-72
2022/06/29 10:55:21;;;;;;;8.07;3.17;;;24.70;99.90;;;;;;5073060;28;20062;-73
2022/06/29 10:57:47;;;;;;;7.72;4.30;;;24.60;99.90;;;;;;5060713;28;20028;-74
2022/06/29 11:00:20;;;;;;;12.48;4.63;;;24.70;99.90;;;;;;5058580;28;20032;-72
2022/06/29 11:02:46;;;;;;;13.07;3.23;;;25.20;99.90;;;;;;5057049;28;20040;-72
2022/06/29 11:05:12;;;;;;;11.48;3.50;;;25.10;99.90;;;;;;5055978;28;20032;-72
2022/06/29 11:13:11;;;;;;;12.90;3.50;;;25.20;99.90;;;;;;5057465;28;20047;-73
2022/06/29 11:15:47;;;;;;;8.60;3.55;;;25.60;99.90;;;;;;5057915;28;20034;-72
2022/06/29 11:18:15;;;;;;;10.75;3.40;;;26.20;99.90;;;;;;5057508;28;20068;-73
2022/06/29 11:20:45;;;;;;;12.07;4.10;;;26.30;99.90;;;;;;5057751;28;20035;-72
2022/06/29 11:23:16;;;;;;;12.85;4.47;;;26.20;99.90;;;;;;5056759;28;20507;-73
2022/06/29 11:25:47;;;;;;;8.60;3.05;;;26.80;99.90;;;;;;5058542;28;20020;-72
2022/06/29 11:28:20;;;;;;;8.85;3.88;;;26.50;99.70;;;;;;5062758;28;20073;-73
2022/06/29 11:31:06;;;;;;;9.07;4.75;;;26.60;99.80;;;;;;5060297;28;20544;-72
2022/06/29 11:33:34;;;;;;;10.18;3.38;;;26.50;99.70;;;;;;5059161;28;20046;-73
2022/06/29 11:36:24;;;;;;;10.65;3.50;;;26.60;99.90;;;;;;5060306;28;20036;-73
2022/06/29 11:38:52;;;;;;;10.15;4.05;;;26.50;99.40;;;;;;5055429;28;20778;-74
2022/06/29 11:41:25;;;;;;;11.65;3.80;;;26.70;98.70;;;;;;5060313;28;20024;-73
2022/06/29 11:44:04;;;;;;;7.60;3.05;;;26.40;99.50;;;;;;5062504;28;20501;-73
2022/06/29 11:46:37;;;;;;;8.40;3.17;;;26.70;99.90;;;;;;5063276;28;21520;-72
2022/06/29 11:51:48;;;;;;;9.27;3.22;;;26.90;99.10;;;;;;5077801;28;20095;-72
2022/06/29 11:54:13;;;;;;;8.98;4.25;;;27.10;99.60;;;;;;5086373;28;20031;-74
2022/06/29 11:56:42;;;;;;;11.82;4.20;;;27.10;98.80;;;;;;5084011;28;20036;-75
2022/06/29 11:59:10;;;;;;;8.77;3.30;;;27.30;99.60;;;;;;5087452;28;20616;-74
2022/06/29 12:01:36;;;;;;;10.65;3.47;;;27.40;98.80;;;;;;5084215;28;20032;-73
2022/06/29 12:04:02;;;;;;;8.52;3.47;;;27.30;98.20;;;;;;5085741;28;20090;-73
2022/06/29 12:06:37;;;;;;;14.10;3.97;;;27.40;98.20;;;;;;5084801;28;20032;-74
2022/06/29 12:09:05;;;;;;;7.68;2.83;;;27.40;98.50;;;;;;5083647;28;20466;-74
2022/06/29 12:11:31;;;;;;;8.07;3.40;;;27.60;97.70;;;;;;5085316;28;20047;-74
2022/06/29 12:13:56;;;;;;;10.68;4.13;;;27.60;97.80;;;;;;5085628;28;20028;-74
2022/06/29 12:16:22;;;;;;;6.68;3.20;;;27.90;98.30;;;;;;5084068;28;20032;-73
2022/06/29 12:18:48;;;;;;;11.05;3.10;;;27.90;97.50;;;;;;5085088;28;20100;-74
2022/06/29 12:21:14;;;;;;;10.68;3.65;;;28.10;97.20;;;;;;5082595;28;20085;-74
2022/06/29 12:23:40;;;;;;;6.63;2.95;;;28.20;97.80;;;;;;5084053;28;20085;-74
2022/06/29 12:26:06;;;;;;;5.93;3.38;;;28.10;96.90;;;;;;5082667;28;20035;-74
2022/06/29 12:28:32;;;;;;;8.65;3.70;;;28.50;97.00;;;;;;5083419;28;20024;-74
2022/06/29 12:30:58;;;;;;;6.68;3.40;;;28.10;96.40;;;;;;5086097;28;20052;-73
2022/06/29 12:33:23;;;;;;;8.52;3.25;;;28.70;97.30;;;;;;5085330;28;20104;-74
2022/06/29 12:35:52;;;;;;;6.63;3.40;;;29.00;96.60;;;;;;5083735;28;20040;-74
2022/06/29 12:38:18;;;;;;;8.20;3.22;;;28.50;96.60;;;;;;5083953;28;20621;-75
2022/06/29 12:40:44;;;;;;;12.10;3.55;;;28.30;96.20;;;;;;5085267;28;20093;-75
2022/06/29 12:43:10;;;;;;;10.13;3.55;;;28.20;96.70;;;;;;5083005;28;20040;-74
2022/06/29 12:45:36;;;;;;;11.07;3.78;;;28.20;96.20;;;;;;5081631;28;20059;-74
2022/06/29 12:48:02;;;;;;;6.50;3.40;;;28.20;97.00;;;;;;5083469;28;20059;-75
2022/06/29 12:50:27;;;;;;;7.68;3.40;;;28.30;96.80;;;;;;5084664;28;20474;-73
2022/06/29 12:52:53;;;;;;;10.18;3.50;;;28.20;96.40;;;;;;5084262;28;20059;-77
2022/06/29 12:55:21;;;;;;;8.73;4.35;;;28.20;96.70;;;;;;5085176;28;20118;-75
2022/06/29 12:57:47;;;;;;;11.00;3.60;;;28.40;96.70;;;;;;5081803;28;20036;-74
2022/06/29 13:00:14;;;;;;;9.20;3.28;;;28.30;95.70;;;;;;5082122;28;20383;-74
2022/06/29 13:02:40;;;;;;;9.90;3.83;;;28.40;96.70;;;;;;5084050;28;20031;-76
2022/06/29 13:05:10;;;;;;;8.43;3.35;;;28.20;95.40;;;;;;5083739;28;20024;-74
2022/06/29 13:07:37;;;;;;;10.85;3.97;;;28.50;96.60;;;;;;5082370;28;20449;-74
2022/06/29 13:10:06;;;;;;;8.88;3.08;;;28.30;95.90;;;;;;5085660;28;20462;-75
2022/06/29 13:12:32;;;;;;;6.22;3.22;;;28.30;96.10;;;;;;5084851;28;20027;-73
2022/06/29 13:14:57;;;;;;;9.38;4.07;;;28.40;95.50;;;;;;5083813;28;20036;-73